Aviation Digital Data Service (ADDS)

Output produced by METARs form (2342 UTC 15 February 2019)
found at http://www.aviationweather.gov/metar/data/
 
METAR text: EINN 152330Z 22014KT 9999 FEW020 SCT033 10/06 Q1014 NOSIG
Conditions at: EINN (SHANNON AIRPORT , IE) observed 2330 UTC 15 February 2019
Temperature: 10.0°C (50°F)
Dewpoint: 6.0°C (43°F) [RH = 76%]
Pressure (altimeter): 29.94 inches Hg (1014.0 mb)
Winds: from the SW (220 degrees) at 16 MPH (14 knots; 7.2 m/s)
Visibility: 6 or more miles (10+ km)
Ceiling: at least 12,000 feet AGL
Clouds: few clouds at 2000 feet AGL
scattered clouds at 3300 feet AGL
Weather: no significant weather observed at this time

METAR text: EINN 152300Z 21012KT 9999 FEW018 SCT022 BKN033 10/06 Q1013 NOSIG
Conditions at: EINN (SHANNON AIRPORT , IE) observed 2300 UTC 15 February 2019
Temperature: 10.0°C (50°F)
Dewpoint: 6.0°C (43°F) [RH = 76%]
Pressure (altimeter): 29.91 inches Hg (1013.0 mb)
Winds: from the SSW (210 degrees) at 14 MPH (12 knots; 6.2 m/s)
Visibility: 6 or more miles (10+ km)
Ceiling: 3300 feet AGL
Clouds: few clouds at 1800 feet AGL
scattered clouds at 2200 feet AGL
broken clouds at 3300 feet AGL
Weather: no significant weather observed at this time

METAR text: EINN 152230Z 21014KT 9999 FEW018 BKN033 10/07 Q1013 NOSIG
Conditions at: EINN (SHANNON AIRPORT , IE) observed 2230 UTC 15 February 2019
Temperature: 10.0°C (50°F)
Dewpoint: 7.0°C (45°F) [RH = 82%]
Pressure (altimeter): 29.91 inches Hg (1013.0 mb)
Winds: from the SSW (210 degrees) at 16 MPH (14 knots; 7.2 m/s)
Visibility: 6 or more miles (10+ km)
Ceiling: 3300 feet AGL
Clouds: few clouds at 1800 feet AGL
broken clouds at 3300 feet AGL
Weather: no significant weather observed at this time

METAR text: EINN 152200Z 20015KT 9999 FEW018 BKN033 10/07 Q1013 NOSIG
Conditions at: EINN (SHANNON AIRPORT , IE) observed 2200 UTC 15 February 2019
Temperature: 10.0°C (50°F)
Dewpoint: 7.0°C (45°F) [RH = 82%]
Pressure (altimeter): 29.91 inches Hg (1013.0 mb)
Winds: from the SSW (200 degrees) at 17 MPH (15 knots; 7.7 m/s)
Visibility: 6 or more miles (10+ km)
Ceiling: 3300 feet AGL
Clouds: few clouds at 1800 feet AGL
broken clouds at 3300 feet AGL
Weather: no significant weather observed at this time

METAR text: EINN 152130Z 17011KT 9999 FEW023 BKN036 10/06 Q1013 NOSIG
Conditions at: EINN (SHANNON AIRPORT , IE) observed 2130 UTC 15 February 2019
Temperature: 10.0°C (50°F)
Dewpoint: 6.0°C (43°F) [RH = 76%]
Pressure (altimeter): 29.91 inches Hg (1013.0 mb)
Winds: from the S (170 degrees) at 13 MPH (11 knots; 5.7 m/s)
Visibility: 6 or more miles (10+ km)
Ceiling: 3600 feet AGL
Clouds: few clouds at 2300 feet AGL
broken clouds at 3600 feet AGL
Weather: no significant weather observed at this time

METAR text: EINN 152100Z 19012KT 9999 FEW023 BKN038 10/06 Q1012 NOSIG
Conditions at: EINN (SHANNON AIRPORT , IE) observed 2100 UTC 15 February 2019
Temperature: 10.0°C (50°F)
Dewpoint: 6.0°C (43°F) [RH = 76%]
Pressure (altimeter): 29.88 inches Hg (1012.0 mb)
Winds: from the S (190 degrees) at 14 MPH (12 knots; 6.2 m/s)
Visibility: 6 or more miles (10+ km)
Ceiling: 3800 feet AGL
Clouds: few clouds at 2300 feet AGL
broken clouds at 3800 feet AGL
Weather: no significant weather observed at this time

METAR text: EINN 152030Z 18011KT 9999 FEW022 BKN037 11/07 Q1012 NOSIG
Conditions at: EINN (SHANNON AIRPORT , IE) observed 2030 UTC 15 February 2019
Temperature: 11.0°C (52°F)
Dewpoint: 7.0°C (45°F) [RH = 76%]
Pressure (altimeter): 29.88 inches Hg (1012.0 mb)
Winds: from the S (180 degrees) at 13 MPH (11 knots; 5.7 m/s)
Visibility: 6 or more miles (10+ km)
Ceiling: 3700 feet AGL
Clouds: few clouds at 2200 feet AGL
broken clouds at 3700 feet AGL
Weather: no significant weather observed at this time

METAR text: EINN 152000Z 20016KT 9999 FEW022 SCT026 BKN038 11/07 Q1012 NOSIG
Conditions at: EINN (SHANNON AIRPORT , IE) observed 2000 UTC 15 February 2019
Temperature: 11.0°C (52°F)
Dewpoint: 7.0°C (45°F) [RH = 76%]
Pressure (altimeter): 29.88 inches Hg (1012.0 mb)
Winds: from the SSW (200 degrees) at 18 MPH (16 knots; 8.2 m/s)
Visibility: 6 or more miles (10+ km)
Ceiling: 3800 feet AGL
Clouds: few clouds at 2200 feet AGL
scattered clouds at 2600 feet AGL
broken clouds at 3800 feet AGL
Weather: no significant weather observed at this time

METAR text: EINN 151930Z 18014KT 9999 FEW025 SCT029 BKN040 11/07 Q1012 NOSIG
Conditions at: EINN (SHANNON AIRPORT , IE) observed 1930 UTC 15 February 2019
Temperature: 11.0°C (52°F)
Dewpoint: 7.0°C (45°F) [RH = 76%]
Pressure (altimeter): 29.88 inches Hg (1012.0 mb)
Winds: from the S (180 degrees) at 16 MPH (14 knots; 7.2 m/s)
Visibility: 6 or more miles (10+ km)
Ceiling: 4000 feet AGL
Clouds: few clouds at 2500 feet AGL
scattered clouds at 2900 feet AGL
broken clouds at 4000 feet AGL
Weather: no significant weather observed at this time

METAR text: EINN 151900Z 18013KT 9999 FEW027 SCT040 11/06 Q1012 NOSIG
Conditions at: EINN (SHANNON AIRPORT , IE) observed 1900 UTC 15 February 2019
Temperature: 11.0°C (52°F)
Dewpoint: 6.0°C (43°F) [RH = 71%]
Pressure (altimeter): 29.88 inches Hg (1012.0 mb)
Winds: from the S (180 degrees) at 15 MPH (13 knots; 6.7 m/s)
Visibility: 6 or more miles (10+ km)
Ceiling: at least 12,000 feet AGL
Clouds: few clouds at 2700 feet AGL
scattered clouds at 4000 feet AGL
Weather: no significant weather observed at this time

METAR text: EINN 151830Z 19017KT 9999 FEW025 SCT035 BKN160 11/06 Q1012 NOSIG
Conditions at: EINN (SHANNON AIRPORT , IE) observed 1830 UTC 15 February 2019
Temperature: 11.0°C (52°F)
Dewpoint: 6.0°C (43°F) [RH = 71%]
Pressure (altimeter): 29.88 inches Hg (1012.0 mb)
Winds: from the S (190 degrees) at 20 MPH (17 knots; 8.7 m/s)
Visibility: 6 or more miles (10+ km)
Ceiling: 16000 feet AGL
Clouds: few clouds at 2500 feet AGL
scattered clouds at 3500 feet AGL
broken clouds at 16000 feet AGL
Weather: no significant weather observed at this time

METAR text: EINN 151800Z 19015KT 9999 FEW026 BKN160 12/07 Q1011 NOSIG
Conditions at: EINN (SHANNON AIRPORT , IE) observed 1800 UTC 15 February 2019
Temperature: 12.0°C (54°F)
Dewpoint: 7.0°C (45°F) [RH = 71%]
Pressure (altimeter): 29.85 inches Hg (1011.0 mb)
Winds: from the S (190 degrees) at 17 MPH (15 knots; 7.7 m/s)
Visibility: 6 or more miles (10+ km)
Ceiling: 16000 feet AGL
Clouds: few clouds at 2600 feet AGL
broken clouds at 16000 feet AGL
Weather: no significant weather observed at this time

METAR text: EINN 151730Z 18015KT 9999 FEW025 BKN160 12/08 Q1011 NOSIG
Conditions at: EINN (SHANNON AIRPORT , IE) observed 1730 UTC 15 February 2019
Temperature: 12.0°C (54°F)
Dewpoint: 8.0°C (46°F) [RH = 76%]
Pressure (altimeter): 29.85 inches Hg (1011.0 mb)
Winds: from the S (180 degrees) at 17 MPH (15 knots; 7.7 m/s)
Visibility: 6 or more miles (10+ km)
Ceiling: 16000 feet AGL
Clouds: few clouds at 2500 feet AGL
broken clouds at 16000 feet AGL
Weather: no significant weather observed at this time

METAR text: EINN 151700Z 18016KT 9999 FEW010 BKN160 13/08 Q1011 NOSIG
Conditions at: EINN (SHANNON AIRPORT , IE) observed 1700 UTC 15 February 2019
Temperature: 13.0°C (55°F)
Dewpoint: 8.0°C (46°F) [RH = 72%]
Pressure (altimeter): 29.85 inches Hg (1011.0 mb)
Winds: from the S (180 degrees) at 18 MPH (16 knots; 8.2 m/s)
Visibility: 6 or more miles (10+ km)
Ceiling: 16000 feet AGL
Clouds: few clouds at 1000 feet AGL
broken clouds at 16000 feet AGL
Weather: no significant weather observed at this time

METAR text: EINN 151630Z 16015KT 9999 FEW009 SCT020 BKN028 12/10 Q1011 NOSIG
Conditions at: EINN (SHANNON AIRPORT , IE) observed 1630 UTC 15 February 2019
Temperature: 12.0°C (54°F)
Dewpoint: 10.0°C (50°F) [RH = 88%]
Pressure (altimeter): 29.85 inches Hg (1011.0 mb)
Winds: from the SSE (160 degrees) at 17 MPH (15 knots; 7.7 m/s)
Visibility: 6 or more miles (10+ km)
Ceiling: 2800 feet AGL
Clouds: few clouds at 900 feet AGL
scattered clouds at 2000 feet AGL
broken clouds at 2800 feet AGL
Weather: no significant weather observed at this time

METAR text: EINN 151600Z 16014KT 9999 -DZ FEW009 SCT014 BKN020 12/10 Q1012 NOSIG
Conditions at: EINN (SHANNON AIRPORT , IE) observed 1600 UTC 15 February 2019
Temperature: 12.0°C (54°F)
Dewpoint: 10.0°C (50°F) [RH = 88%]
Pressure (altimeter): 29.88 inches Hg (1012.0 mb)
Winds: from the SSE (160 degrees) at 16 MPH (14 knots; 7.2 m/s)
Visibility: 6 or more miles (10+ km)
Ceiling: 2000 feet AGL
Clouds: few clouds at 900 feet AGL
scattered clouds at 1400 feet AGL
broken clouds at 2000 feet AGL
Weather: -DZ  (light drizzle)

METAR text: EINN 151530Z 16014KT 9999 FEW009 SCT011 BKN018 12/10 Q1012 NOSIG
Conditions at: EINN (SHANNON AIRPORT , IE) observed 1530 UTC 15 February 2019
Temperature: 12.0°C (54°F)
Dewpoint: 10.0°C (50°F) [RH = 88%]
Pressure (altimeter): 29.88 inches Hg (1012.0 mb)
Winds: from the SSE (160 degrees) at 16 MPH (14 knots; 7.2 m/s)
Visibility: 6 or more miles (10+ km)
Ceiling: 1800 feet AGL
Clouds: few clouds at 900 feet AGL
scattered clouds at 1100 feet AGL
broken clouds at 1800 feet AGL
Weather: no significant weather observed at this time

METAR text: EINN 151500Z 15013KT 9000 -DZ FEW009 BKN011 12/10 Q1012 NOSIG
Conditions at: EINN (SHANNON AIRPORT , IE) observed 1500 UTC 15 February 2019
Temperature: 12.0°C (54°F)
Dewpoint: 10.0°C (50°F) [RH = 88%]
Pressure (altimeter): 29.88 inches Hg (1012.0 mb)
Winds: from the SSE (150 degrees) at 15 MPH (13 knots; 6.7 m/s)
Visibility: 6 miles ( 9 km)
Ceiling: 1100 feet AGL
Clouds: few clouds at 900 feet AGL
broken clouds at 1100 feet AGL
Weather: -DZ  (light drizzle)

METAR text: EINN 151430Z 14014KT 9000 -DZ FEW009 BKN011 12/10 Q1013 NOSIG
Conditions at: EINN (SHANNON AIRPORT , IE) observed 1430 UTC 15 February 2019
Temperature: 12.0°C (54°F)
Dewpoint: 10.0°C (50°F) [RH = 88%]
Pressure (altimeter): 29.91 inches Hg (1013.0 mb)
Winds: from the SE (140 degrees) at 16 MPH (14 knots; 7.2 m/s)
Visibility: 6 miles ( 9 km)
Ceiling: 1100 feet AGL
Clouds: few clouds at 900 feet AGL
broken clouds at 1100 feet AGL
Weather: -DZ  (light drizzle)

METAR text: EINN 151400Z 16014KT 9999 BKN013 12/09 Q1014 NOSIG
Conditions at: EINN (SHANNON AIRPORT , IE) observed 1400 UTC 15 February 2019
Temperature: 12.0°C (54°F)
Dewpoint: 9.0°C (48°F) [RH = 82%]
Pressure (altimeter): 29.94 inches Hg (1014.0 mb)
Winds: from the SSE (160 degrees) at 16 MPH (14 knots; 7.2 m/s)
Visibility: 6 or more miles (10+ km)
Ceiling: 1300 feet AGL
Clouds: broken clouds at 1300 feet AGL
Weather: no significant weather observed at this time

METAR text: EINN 151330Z 16014KT 9999 BKN014 12/07 Q1014 NOSIG
Conditions at: EINN (SHANNON AIRPORT , IE) observed 1330 UTC 15 February 2019
Temperature: 12.0°C (54°F)
Dewpoint: 7.0°C (45°F) [RH = 71%]
Pressure (altimeter): 29.94 inches Hg (1014.0 mb)
Winds: from the SSE (160 degrees) at 16 MPH (14 knots; 7.2 m/s)
Visibility: 6 or more miles (10+ km)
Ceiling: 1400 feet AGL
Clouds: broken clouds at 1400 feet AGL
Weather: no significant weather observed at this time

METAR text: EINN 151300Z 15020KT 9999 FEW013 BKN015 12/09 Q1014 NOSIG
Conditions at: EINN (SHANNON AIRPORT , IE) observed 1300 UTC 15 February 2019
Temperature: 12.0°C (54°F)
Dewpoint: 9.0°C (48°F) [RH = 82%]
Pressure (altimeter): 29.94 inches Hg (1014.0 mb)
Winds: from the SSE (150 degrees) at 23 MPH (20 knots; 10.3 m/s)
Visibility: 6 or more miles (10+ km)
Ceiling: 1500 feet AGL
Clouds: few clouds at 1300 feet AGL
broken clouds at 1500 feet AGL
Weather: no significant weather observed at this time

METAR text: EINN 151230Z 16016KT 9999 FEW014 BKN016 12/08 Q1014 NOSIG
Conditions at: EINN (SHANNON AIRPORT , IE) observed 1230 UTC 15 February 2019
Temperature: 12.0°C (54°F)
Dewpoint: 8.0°C (46°F) [RH = 76%]
Pressure (altimeter): 29.94 inches Hg (1014.0 mb)
Winds: from the SSE (160 degrees) at 18 MPH (16 knots; 8.2 m/s)
Visibility: 6 or more miles (10+ km)
Ceiling: 1600 feet AGL
Clouds: few clouds at 1400 feet AGL
broken clouds at 1600 feet AGL
Weather: no significant weather observed at this time

METAR text: EINN 151200Z 16016KT 9999 FEW015 BKN017 12/08 Q1015 NOSIG
Conditions at: EINN (SHANNON AIRPORT , IE) observed 1200 UTC 15 February 2019
Temperature: 12.0°C (54°F)
Dewpoint: 8.0°C (46°F) [RH = 76%]
Pressure (altimeter): 29.97 inches Hg (1015.0 mb)
Winds: from the SSE (160 degrees) at 18 MPH (16 knots; 8.2 m/s)
Visibility: 6 or more miles (10+ km)
Ceiling: 1700 feet AGL
Clouds: few clouds at 1500 feet AGL
broken clouds at 1700 feet AGL
Weather: no significant weather observed at this time

METAR text: EINN 151130Z 16017KT 9999 FEW016 SCT018 BKN140 12/08 Q1015 NOSIG
Conditions at: EINN (SHANNON AIRPORT , IE) observed 1130 UTC 15 February 2019
Temperature: 12.0°C (54°F)
Dewpoint: 8.0°C (46°F) [RH = 76%]
Pressure (altimeter): 29.97 inches Hg (1015.0 mb)
Winds: from the SSE (160 degrees) at 20 MPH (17 knots; 8.7 m/s)
Visibility: 6 or more miles (10+ km)
Ceiling: 14000 feet AGL
Clouds: few clouds at 1600 feet AGL
scattered clouds at 1800 feet AGL
broken clouds at 14000 feet AGL
Weather: no significant weather observed at this time

METAR text: EINN 151100Z 16020KT 9999 FEW018 BKN021 BKN140 12/08 Q1015 NOSIG
Conditions at: EINN (SHANNON AIRPORT , IE) observed 1100 UTC 15 February 2019
Temperature: 12.0°C (54°F)
Dewpoint: 8.0°C (46°F) [RH = 76%]
Pressure (altimeter): 29.97 inches Hg (1015.0 mb)
Winds: from the SSE (160 degrees) at 23 MPH (20 knots; 10.3 m/s)
Visibility: 6 or more miles (10+ km)
Ceiling: 2100 feet AGL
Clouds: few clouds at 1800 feet AGL
broken clouds at 2100 feet AGL
broken clouds at 14000 feet AGL
Weather: no significant weather observed at this time

METAR text: EINN 151030Z 16018KT 9999 FEW017 BKN021 12/08 Q1016 NOSIG
Conditions at: EINN (SHANNON AIRPORT , IE) observed 1030 UTC 15 February 2019
Temperature: 12.0°C (54°F)
Dewpoint: 8.0°C (46°F) [RH = 76%]
Pressure (altimeter): 30.00 inches Hg (1016.0 mb)
Winds: from the SSE (160 degrees) at 21 MPH (18 knots; 9.3 m/s)
Visibility: 6 or more miles (10+ km)
Ceiling: 2100 feet AGL
Clouds: few clouds at 1700 feet AGL
broken clouds at 2100 feet AGL
Weather: no significant weather observed at this time

METAR text: EINN 151000Z 16018KT 9999 SCT018 BKN140 11/07 Q1016 NOSIG
Conditions at: EINN (SHANNON AIRPORT , IE) observed 1000 UTC 15 February 2019
Temperature: 11.0°C (52°F)
Dewpoint: 7.0°C (45°F) [RH = 76%]
Pressure (altimeter): 30.00 inches Hg (1016.0 mb)
Winds: from the SSE (160 degrees) at 21 MPH (18 knots; 9.3 m/s)
Visibility: 6 or more miles (10+ km)
Ceiling: 14000 feet AGL
Clouds: scattered clouds at 1800 feet AGL
broken clouds at 14000 feet AGL
Weather: no significant weather observed at this time

METAR text: EINN 150930Z 16011KT 9999 BKN018 11/07 Q1016 NOSIG
Conditions at: EINN (SHANNON AIRPORT , IE) observed 0930 UTC 15 February 2019
Temperature: 11.0°C (52°F)
Dewpoint: 7.0°C (45°F) [RH = 76%]
Pressure (altimeter): 30.00 inches Hg (1016.0 mb)
Winds: from the SSE (160 degrees) at 13 MPH (11 knots; 5.7 m/s)
Visibility: 6 or more miles (10+ km)
Ceiling: 1800 feet AGL
Clouds: broken clouds at 1800 feet AGL
Weather: no significant weather observed at this time

METAR text: EINN 150900Z 15006KT 9999 BKN018 11/07 Q1016 NOSIG
Conditions at: EINN (SHANNON AIRPORT , IE) observed 0900 UTC 15 February 2019
Temperature: 11.0°C (52°F)
Dewpoint: 7.0°C (45°F) [RH = 76%]
Pressure (altimeter): 30.00 inches Hg (1016.0 mb)
Winds: from the SSE (150 degrees) at 7 MPH (6 knots; 3.1 m/s)
Visibility: 6 or more miles (10+ km)
Ceiling: 1800 feet AGL
Clouds: broken clouds at 1800 feet AGL
Weather: no significant weather observed at this time

METAR text: EINN 150830Z 15006KT 9999 BKN018 10/07 Q1017 NOSIG
Conditions at: EINN (SHANNON AIRPORT , IE) observed 0830 UTC 15 February 2019
Temperature: 10.0°C (50°F)
Dewpoint: 7.0°C (45°F) [RH = 82%]
Pressure (altimeter): 30.03 inches Hg (1017.0 mb)
Winds: from the SSE (150 degrees) at 7 MPH (6 knots; 3.1 m/s)
Visibility: 6 or more miles (10+ km)
Ceiling: 1800 feet AGL
Clouds: broken clouds at 1800 feet AGL
Weather: no significant weather observed at this time

METAR text: EINN 150800Z 13010KT 9999 BKN018 10/07 Q1016 NOSIG
Conditions at: EINN (SHANNON AIRPORT , IE) observed 0800 UTC 15 February 2019
Temperature: 10.0°C (50°F)
Dewpoint: 7.0°C (45°F) [RH = 82%]
Pressure (altimeter): 30.00 inches Hg (1016.0 mb)
Winds: from the SE (130 degrees) at 12 MPH (10 knots; 5.1 m/s)
Visibility: 6 or more miles (10+ km)
Ceiling: 1800 feet AGL
Clouds: broken clouds at 1800 feet AGL
Weather: no significant weather observed at this time

METAR text: EINN 150730Z 15009KT 9999 BKN018 10/07 Q1016 NOSIG
Conditions at: EINN (SHANNON AIRPORT , IE) observed 0730 UTC 15 February 2019
Temperature: 10.0°C (50°F)
Dewpoint: 7.0°C (45°F) [RH = 82%]
Pressure (altimeter): 30.00 inches Hg (1016.0 mb)
Winds: from the SSE (150 degrees) at 10 MPH (9 knots; 4.6 m/s)
Visibility: 6 or more miles (10+ km)
Ceiling: 1800 feet AGL
Clouds: broken clouds at 1800 feet AGL
Weather: no significant weather observed at this time

METAR text: EINN 150700Z 15014KT 9999 SCT017 BKN050 10/07 Q1016 NOSIG
Conditions at: EINN (SHANNON AIRPORT , IE) observed 0700 UTC 15 February 2019
Temperature: 10.0°C (50°F)
Dewpoint: 7.0°C (45°F) [RH = 82%]
Pressure (altimeter): 30.00 inches Hg (1016.0 mb)
Winds: from the SSE (150 degrees) at 16 MPH (14 knots; 7.2 m/s)
Visibility: 6 or more miles (10+ km)
Ceiling: 5000 feet AGL
Clouds: scattered clouds at 1700 feet AGL
broken clouds at 5000 feet AGL
Weather: no significant weather observed at this time

METAR text: EINN 150630Z 13007KT 9999 BKN017 10/07 Q1016 NOSIG
Conditions at: EINN (SHANNON AIRPORT , IE) observed 0630 UTC 15 February 2019
Temperature: 10.0°C (50°F)
Dewpoint: 7.0°C (45°F) [RH = 82%]
Pressure (altimeter): 30.00 inches Hg (1016.0 mb)
Winds: from the SE (130 degrees) at 8 MPH (7 knots; 3.6 m/s)
Visibility: 6 or more miles (10+ km)
Ceiling: 1700 feet AGL
Clouds: broken clouds at 1700 feet AGL
Weather: no significant weather observed at this time

METAR text: EINN 150600Z 10008KT 9999 BKN013 09/07 Q1017 NOSIG
Conditions at: EINN (SHANNON AIRPORT , IE) observed 0600 UTC 15 February 2019
Temperature: 9.0°C (48°F)
Dewpoint: 7.0°C (45°F) [RH = 87%]
Pressure (altimeter): 30.03 inches Hg (1017.0 mb)
Winds: from the E (100 degrees) at 9 MPH (8 knots; 4.1 m/s)
Visibility: 6 or more miles (10+ km)
Ceiling: 1300 feet AGL
Clouds: broken clouds at 1300 feet AGL
Weather: no significant weather observed at this time

METAR text: EINN 150530Z 12008KT 9999 BKN013 09/07 Q1017 NOSIG
Conditions at: EINN (SHANNON AIRPORT , IE) observed 0530 UTC 15 February 2019
Temperature: 9.0°C (48°F)
Dewpoint: 7.0°C (45°F) [RH = 87%]
Pressure (altimeter): 30.03 inches Hg (1017.0 mb)
Winds: from the ESE (120 degrees) at 9 MPH (8 knots; 4.1 m/s)
Visibility: 6 or more miles (10+ km)
Ceiling: 1300 feet AGL
Clouds: broken clouds at 1300 feet AGL
Weather: no significant weather observed at this time

METAR text: EINN 150500Z 11010KT 9999 BKN014 09/06 Q1017 NOSIG
Conditions at: EINN (SHANNON AIRPORT , IE) observed 0500 UTC 15 February 2019
Temperature: 9.0°C (48°F)
Dewpoint: 6.0°C (43°F) [RH = 81%]
Pressure (altimeter): 30.03 inches Hg (1017.0 mb)
Winds: from the ESE (110 degrees) at 12 MPH (10 knots; 5.1 m/s)
Visibility: 6 or more miles (10+ km)
Ceiling: 1400 feet AGL
Clouds: broken clouds at 1400 feet AGL
Weather: no significant weather observed at this time

METAR text: EINN 150430Z 11013KT 9999 BKN014 08/06 Q1017 NOSIG
Conditions at: EINN (SHANNON AIRPORT , IE) observed 0430 UTC 15 February 2019
Temperature: 8.0°C (46°F)
Dewpoint: 6.0°C (43°F) [RH = 87%]
Pressure (altimeter): 30.03 inches Hg (1017.0 mb)
Winds: from the ESE (110 degrees) at 15 MPH (13 knots; 6.7 m/s)
Visibility: 6 or more miles (10+ km)
Ceiling: 1400 feet AGL
Clouds: broken clouds at 1400 feet AGL
Weather: no significant weather observed at this time

METAR text: EINN 150400Z 13017KT 9999 SCT015 08/06 Q1018 NOSIG
Conditions at: EINN (SHANNON AIRPORT , IE) observed 0400 UTC 15 February 2019
Temperature: 8.0°C (46°F)
Dewpoint: 6.0°C (43°F) [RH = 87%]
Pressure (altimeter): 30.06 inches Hg (1018.0 mb)
Winds: from the SE (130 degrees) at 20 MPH (17 knots; 8.7 m/s)
Visibility: 6 or more miles (10+ km)
Ceiling: at least 12,000 feet AGL
Clouds: scattered clouds at 1500 feet AGL
Weather: no significant weather observed at this time

METAR text: EINN 150330Z 14018KT 9999 SCT016 08/06 Q1018 NOSIG
Conditions at: EINN (SHANNON AIRPORT , IE) observed 0330 UTC 15 February 2019
Temperature: 8.0°C (46°F)
Dewpoint: 6.0°C (43°F) [RH = 87%]
Pressure (altimeter): 30.06 inches Hg (1018.0 mb)
Winds: from the SE (140 degrees) at 21 MPH (18 knots; 9.3 m/s)
Visibility: 6 or more miles (10+ km)
Ceiling: at least 12,000 feet AGL
Clouds: scattered clouds at 1600 feet AGL
Weather: no significant weather observed at this time

METAR text: EINN 150300Z 14018KT 9999 BKN016 08/06 Q1018 NOSIG
Conditions at: EINN (SHANNON AIRPORT , IE) observed 0300 UTC 15 February 2019
Temperature: 8.0°C (46°F)
Dewpoint: 6.0°C (43°F) [RH = 87%]
Pressure (altimeter): 30.06 inches Hg (1018.0 mb)
Winds: from the SE (140 degrees) at 21 MPH (18 knots; 9.3 m/s)
Visibility: 6 or more miles (10+ km)
Ceiling: 1600 feet AGL
Clouds: broken clouds at 1600 feet AGL
Weather: no significant weather observed at this time

METAR text: EINN 150230Z 14013KT 9999 BKN016 08/05 Q1019 NOSIG
Conditions at: EINN (SHANNON AIRPORT , IE) observed 0230 UTC 15 February 2019
Temperature: 8.0°C (46°F)
Dewpoint: 5.0°C (41°F) [RH = 81%]
Pressure (altimeter): 30.09 inches Hg (1019.0 mb)
Winds: from the SE (140 degrees) at 15 MPH (13 knots; 6.7 m/s)
Visibility: 6 or more miles (10+ km)
Ceiling: 1600 feet AGL
Clouds: broken clouds at 1600 feet AGL
Weather: no significant weather observed at this time

METAR text: EINN 150200Z 14011KT 9999 BKN016 08/05 Q1020 NOSIG
Conditions at: EINN (SHANNON AIRPORT , IE) observed 0200 UTC 15 February 2019
Temperature: 8.0°C (46°F)
Dewpoint: 5.0°C (41°F) [RH = 81%]
Pressure (altimeter): 30.12 inches Hg (1020.0 mb)
Winds: from the SE (140 degrees) at 13 MPH (11 knots; 5.7 m/s)
Visibility: 6 or more miles (10+ km)
Ceiling: 1600 feet AGL
Clouds: broken clouds at 1600 feet AGL
Weather: no significant weather observed at this time

METAR text: EINN 150130Z 13014KT 9999 BKN016 08/05 Q1019 NOSIG
Conditions at: EINN (SHANNON AIRPORT , IE) observed 0130 UTC 15 February 2019
Temperature: 8.0°C (46°F)
Dewpoint: 5.0°C (41°F) [RH = 81%]
Pressure (altimeter): 30.09 inches Hg (1019.0 mb)
Winds: from the SE (130 degrees) at 16 MPH (14 knots; 7.2 m/s)
Visibility: 6 or more miles (10+ km)
Ceiling: 1600 feet AGL
Clouds: broken clouds at 1600 feet AGL
Weather: no significant weather observed at this time

METAR text: EINN 150100Z 13016KT 9999 BKN016 08/05 Q1019 NOSIG
Conditions at: EINN (SHANNON AIRPORT , IE) observed 0100 UTC 15 February 2019
Temperature: 8.0°C (46°F)
Dewpoint: 5.0°C (41°F) [RH = 81%]
Pressure (altimeter): 30.09 inches Hg (1019.0 mb)
Winds: from the SE (130 degrees) at 18 MPH (16 knots; 8.2 m/s)
Visibility: 6 or more miles (10+ km)
Ceiling: 1600 feet AGL
Clouds: broken clouds at 1600 feet AGL
Weather: no significant weather observed at this time

METAR text: EINN 150030Z 13013KT 9999 BKN017 08/05 Q1020 NOSIG
Conditions at: EINN (SHANNON AIRPORT , IE) observed 0030 UTC 15 February 2019
Temperature: 8.0°C (46°F)
Dewpoint: 5.0°C (41°F) [RH = 81%]
Pressure (altimeter): 30.12 inches Hg (1020.0 mb)
Winds: from the SE (130 degrees) at 15 MPH (13 knots; 6.7 m/s)
Visibility: 6 or more miles (10+ km)
Ceiling: 1700 feet AGL
Clouds: broken clouds at 1700 feet AGL
Weather: no significant weather observed at this time

METAR text: EINN 150000Z 13010KT 9999 BKN017 08/05 Q1020 NOSIG
Conditions at: EINN (SHANNON AIRPORT , IE) observed 0000 UTC 15 February 2019
Temperature: 8.0°C (46°F)
Dewpoint: 5.0°C (41°F) [RH = 81%]
Pressure (altimeter): 30.12 inches Hg (1020.0 mb)
Winds: from the SE (130 degrees) at 12 MPH (10 knots; 5.1 m/s)
Visibility: 6 or more miles (10+ km)
Ceiling: 1700 feet AGL
Clouds: broken clouds at 1700 feet AGL
Weather: no significant weather observed at this time

METAR text: EINN 142330Z 13009KT 9999 BKN017 08/05 Q1020 NOSIG
Conditions at: EINN (SHANNON AIRPORT , IE) observed 2330 UTC 14 February 2019
Temperature: 8.0°C (46°F)
Dewpoint: 5.0°C (41°F) [RH = 81%]
Pressure (altimeter): 30.12 inches Hg (1020.0 mb)
Winds: from the SE (130 degrees) at 10 MPH (9 knots; 4.6 m/s)
Visibility: 6 or more miles (10+ km)
Ceiling: 1700 feet AGL
Clouds: broken clouds at 1700 feet AGL
Weather: no significant weather observed at this time

METAR text: EINN 142300Z 13013KT 9999 BKN017 08/05 Q1021 NOSIG
Conditions at: EINN (SHANNON AIRPORT , IE) observed 2300 UTC 14 February 2019
Temperature: 8.0°C (46°F)
Dewpoint: 5.0°C (41°F) [RH = 81%]
Pressure (altimeter): 30.15 inches Hg (1021.0 mb)
Winds: from the SE (130 degrees) at 15 MPH (13 knots; 6.7 m/s)
Visibility: 6 or more miles (10+ km)
Ceiling: 1700 feet AGL
Clouds: broken clouds at 1700 feet AGL
Weather: no significant weather observed at this time

METAR text: EINN 142230Z 14013KT 9999 BKN016 09/05 Q1020 NOSIG
Conditions at: EINN (SHANNON AIRPORT , IE) observed 2230 UTC 14 February 2019
Temperature: 9.0°C (48°F)
Dewpoint: 5.0°C (41°F) [RH = 76%]
Pressure (altimeter): 30.12 inches Hg (1020.0 mb)
Winds: from the SE (140 degrees) at 15 MPH (13 knots; 6.7 m/s)
Visibility: 6 or more miles (10+ km)
Ceiling: 1600 feet AGL
Clouds: broken clouds at 1600 feet AGL
Weather: no significant weather observed at this time

METAR text: EINN 142200Z 13013KT 9999 FEW010 BKN015 09/06 Q1021 NOSIG
Conditions at: EINN (SHANNON AIRPORT , IE) observed 2200 UTC 14 February 2019
Temperature: 9.0°C (48°F)
Dewpoint: 6.0°C (43°F) [RH = 81%]
Pressure (altimeter): 30.15 inches Hg (1021.0 mb)
Winds: from the SE (130 degrees) at 15 MPH (13 knots; 6.7 m/s)
Visibility: 6 or more miles (10+ km)
Ceiling: 1500 feet AGL
Clouds: few clouds at 1000 feet AGL
broken clouds at 1500 feet AGL
Weather: no significant weather observed at this time

METAR text: EINN 142130Z 14013KT 9999 FEW009 OVC011 09/07 Q1021 NOSIG
Conditions at: EINN (SHANNON AIRPORT , IE) observed 2130 UTC 14 February 2019
Temperature: 9.0°C (48°F)
Dewpoint: 7.0°C (45°F) [RH = 87%]
Pressure (altimeter): 30.15 inches Hg (1021.0 mb)
Winds: from the SE (140 degrees) at 15 MPH (13 knots; 6.7 m/s)
Visibility: 6 or more miles (10+ km)
Ceiling: 1100 feet AGL
Clouds: few clouds at 900 feet AGL
overcast cloud deck at 1100 feet AGL
Weather: no significant weather observed at this time

METAR text: EINN 142100Z 14012KT 9999 OVC011 09/07 Q1021 NOSIG
Conditions at: EINN (SHANNON AIRPORT , IE) observed 2100 UTC 14 February 2019
Temperature: 9.0°C (48°F)
Dewpoint: 7.0°C (45°F) [RH = 87%]
Pressure (altimeter): 30.15 inches Hg (1021.0 mb)
Winds: from the SE (140 degrees) at 14 MPH (12 knots; 6.2 m/s)
Visibility: 6 or more miles (10+ km)
Ceiling: 1100 feet AGL
Clouds: overcast cloud deck at 1100 feet AGL
Weather: no significant weather observed at this time

METAR text: EINN 142030Z 14012KT 9999 FEW011 BKN013 09/07 Q1021 NOSIG
Conditions at: EINN (SHANNON AIRPORT , IE) observed 2030 UTC 14 February 2019
Temperature: 9.0°C (48°F)
Dewpoint: 7.0°C (45°F) [RH = 87%]
Pressure (altimeter): 30.15 inches Hg (1021.0 mb)
Winds: from the SE (140 degrees) at 14 MPH (12 knots; 6.2 m/s)
Visibility: 6 or more miles (10+ km)
Ceiling: 1300 feet AGL
Clouds: few clouds at 1100 feet AGL
broken clouds at 1300 feet AGL
Weather: no significant weather observed at this time

METAR text: EINN 142000Z 14011KT 9999 BKN014 09/06 Q1021 NOSIG
Conditions at: EINN (SHANNON AIRPORT , IE) observed 2000 UTC 14 February 2019
Temperature: 9.0°C (48°F)
Dewpoint: 6.0°C (43°F) [RH = 81%]
Pressure (altimeter): 30.15 inches Hg (1021.0 mb)
Winds: from the SE (140 degrees) at 13 MPH (11 knots; 5.7 m/s)
Visibility: 6 or more miles (10+ km)
Ceiling: 1400 feet AGL
Clouds: broken clouds at 1400 feet AGL
Weather: no significant weather observed at this time

METAR text: EINN 141930Z 14012KT 9999 SCT013 BKN016 10/07 Q1022 NOSIG
Conditions at: EINN (SHANNON AIRPORT , IE) observed 1930 UTC 14 February 2019
Temperature: 10.0°C (50°F)
Dewpoint: 7.0°C (45°F) [RH = 82%]
Pressure (altimeter): 30.18 inches Hg (1022.0 mb)
Winds: from the SE (140 degrees) at 14 MPH (12 knots; 6.2 m/s)
Visibility: 6 or more miles (10+ km)
Ceiling: 1600 feet AGL
Clouds: scattered clouds at 1300 feet AGL
broken clouds at 1600 feet AGL
Weather: no significant weather observed at this time

METAR text: EINN 141900Z 15012KT 9999 BKN013 10/07 Q1022 NOSIG
Conditions at: EINN (SHANNON AIRPORT , IE) observed 1900 UTC 14 February 2019
Temperature: 10.0°C (50°F)
Dewpoint: 7.0°C (45°F) [RH = 82%]
Pressure (altimeter): 30.18 inches Hg (1022.0 mb)
Winds: from the SSE (150 degrees) at 14 MPH (12 knots; 6.2 m/s)
Visibility: 6 or more miles (10+ km)
Ceiling: 1300 feet AGL
Clouds: broken clouds at 1300 feet AGL
Weather: no significant weather observed at this time

METAR text: EINN 141830Z 14013KT 9999 BKN016 10/07 Q1021 NOSIG
Conditions at: EINN (SHANNON AIRPORT , IE) observed 1830 UTC 14 February 2019
Temperature: 10.0°C (50°F)
Dewpoint: 7.0°C (45°F) [RH = 82%]
Pressure (altimeter): 30.15 inches Hg (1021.0 mb)
Winds: from the SE (140 degrees) at 15 MPH (13 knots; 6.7 m/s)
Visibility: 6 or more miles (10+ km)
Ceiling: 1600 feet AGL
Clouds: broken clouds at 1600 feet AGL
Weather: no significant weather observed at this time

METAR text: EINN 141800Z 15016KT 9999 BKN017 10/07 Q1022 NOSIG
Conditions at: EINN (SHANNON AIRPORT , IE) observed 1800 UTC 14 February 2019
Temperature: 10.0°C (50°F)
Dewpoint: 7.0°C (45°F) [RH = 82%]
Pressure (altimeter): 30.18 inches Hg (1022.0 mb)
Winds: from the SSE (150 degrees) at 18 MPH (16 knots; 8.2 m/s)
Visibility: 6 or more miles (10+ km)
Ceiling: 1700 feet AGL
Clouds: broken clouds at 1700 feet AGL
Weather: no significant weather observed at this time

METAR text: EINN 141730Z 15014KT 9999 BKN015 10/07 Q1022 NOSIG
Conditions at: EINN (SHANNON AIRPORT , IE) observed 1730 UTC 14 February 2019
Temperature: 10.0°C (50°F)
Dewpoint: 7.0°C (45°F) [RH = 82%]
Pressure (altimeter): 30.18 inches Hg (1022.0 mb)
Winds: from the SSE (150 degrees) at 16 MPH (14 knots; 7.2 m/s)
Visibility: 6 or more miles (10+ km)
Ceiling: 1500 feet AGL
Clouds: broken clouds at 1500 feet AGL
Weather: no significant weather observed at this time

METAR text: EINN 141700Z 14011KT 9999 FEW014 BKN016 10/07 Q1022 NOSIG
Conditions at: EINN (SHANNON AIRPORT , IE) observed 1700 UTC 14 February 2019
Temperature: 10.0°C (50°F)
Dewpoint: 7.0°C (45°F) [RH = 82%]
Pressure (altimeter): 30.18 inches Hg (1022.0 mb)
Winds: from the SE (140 degrees) at 13 MPH (11 knots; 5.7 m/s)
Visibility: 6 or more miles (10+ km)
Ceiling: 1600 feet AGL
Clouds: few clouds at 1400 feet AGL
broken clouds at 1600 feet AGL
Weather: no significant weather observed at this time

METAR text: EINN 141630Z 14014KT 9999 FEW014 BKN016 10/07 Q1022 NOSIG
Conditions at: EINN (SHANNON AIRPORT , IE) observed 1630 UTC 14 February 2019
Temperature: 10.0°C (50°F)
Dewpoint: 7.0°C (45°F) [RH = 82%]
Pressure (altimeter): 30.18 inches Hg (1022.0 mb)
Winds: from the SE (140 degrees) at 16 MPH (14 knots; 7.2 m/s)
Visibility: 6 or more miles (10+ km)
Ceiling: 1600 feet AGL
Clouds: few clouds at 1400 feet AGL
broken clouds at 1600 feet AGL
Weather: no significant weather observed at this time

METAR text: EINN 141600Z 15015KT 130V190 9999 FEW014 BKN016 10/07 Q1022 NOSIG
Conditions at: EINN (SHANNON AIRPORT , IE) observed 1600 UTC 14 February 2019
Temperature: 10.0°C (50°F)
Dewpoint: 7.0°C (45°F) [RH = 82%]
Pressure (altimeter): 30.18 inches Hg (1022.0 mb)
Winds: from the SSE (150 degrees) at 17 MPH (15 knots; 7.7 m/s)
Visibility: 6 or more miles (10+ km)
Ceiling: 1600 feet AGL
Clouds: few clouds at 1400 feet AGL
broken clouds at 1600 feet AGL
Weather: no significant weather observed at this time

METAR text: EINN 141530Z 15017KT 9999 FEW014 BKN016 10/07 Q1022 NOSIG
Conditions at: EINN (SHANNON AIRPORT , IE) observed 1530 UTC 14 February 2019
Temperature: 10.0°C (50°F)
Dewpoint: 7.0°C (45°F) [RH = 82%]
Pressure (altimeter): 30.18 inches Hg (1022.0 mb)
Winds: from the SSE (150 degrees) at 20 MPH (17 knots; 8.7 m/s)
Visibility: 6 or more miles (10+ km)
Ceiling: 1600 feet AGL
Clouds: few clouds at 1400 feet AGL
broken clouds at 1600 feet AGL
Weather: no significant weather observed at this time

METAR text: EINN 141500Z 14018KT 9999 FEW016 BKN018 10/07 Q1022 NOSIG
Conditions at: EINN (SHANNON AIRPORT , IE) observed 1500 UTC 14 February 2019
Temperature: 10.0°C (50°F)
Dewpoint: 7.0°C (45°F) [RH = 82%]
Pressure (altimeter): 30.18 inches Hg (1022.0 mb)
Winds: from the SE (140 degrees) at 21 MPH (18 knots; 9.3 m/s)
Visibility: 6 or more miles (10+ km)
Ceiling: 1800 feet AGL
Clouds: few clouds at 1600 feet AGL
broken clouds at 1800 feet AGL
Weather: no significant weather observed at this time

METAR text: EINN 141430Z 15017KT 9999 BKN018 11/07 Q1022 NOSIG
Conditions at: EINN (SHANNON AIRPORT , IE) observed 1430 UTC 14 February 2019
Temperature: 11.0°C (52°F)
Dewpoint: 7.0°C (45°F) [RH = 76%]
Pressure (altimeter): 30.18 inches Hg (1022.0 mb)
Winds: from the SSE (150 degrees) at 20 MPH (17 knots; 8.7 m/s)
Visibility: 6 or more miles (10+ km)
Ceiling: 1800 feet AGL
Clouds: broken clouds at 1800 feet AGL
Weather: no significant weather observed at this time

METAR text: EINN 141400Z 15016KT 9999 BKN018 11/06 Q1022 NOSIG
Conditions at: EINN (SHANNON AIRPORT , IE) observed 1400 UTC 14 February 2019
Temperature: 11.0°C (52°F)
Dewpoint: 6.0°C (43°F) [RH = 71%]
Pressure (altimeter): 30.18 inches Hg (1022.0 mb)
Winds: from the SSE (150 degrees) at 18 MPH (16 knots; 8.2 m/s)
Visibility: 6 or more miles (10+ km)
Ceiling: 1800 feet AGL
Clouds: broken clouds at 1800 feet AGL
Weather: no significant weather observed at this time

METAR text: EINN 141330Z 14018KT 9999 BKN018 11/06 Q1023 NOSIG
Conditions at: EINN (SHANNON AIRPORT , IE) observed 1330 UTC 14 February 2019
Temperature: 11.0°C (52°F)
Dewpoint: 6.0°C (43°F) [RH = 71%]
Pressure (altimeter): 30.21 inches Hg (1023.0 mb)
Winds: from the SE (140 degrees) at 21 MPH (18 knots; 9.3 m/s)
Visibility: 6 or more miles (10+ km)
Ceiling: 1800 feet AGL
Clouds: broken clouds at 1800 feet AGL
Weather: no significant weather observed at this time

METAR text: EINN 141300Z 14015KT 9999 BKN018 12/07 Q1023 NOSIG
Conditions at: EINN (SHANNON AIRPORT , IE) observed 1300 UTC 14 February 2019
Temperature: 12.0°C (54°F)
Dewpoint: 7.0°C (45°F) [RH = 71%]
Pressure (altimeter): 30.21 inches Hg (1023.0 mb)
Winds: from the SE (140 degrees) at 17 MPH (15 knots; 7.7 m/s)
Visibility: 6 or more miles (10+ km)
Ceiling: 1800 feet AGL
Clouds: broken clouds at 1800 feet AGL
Weather: no significant weather observed at this time

METAR text: EINN 141230Z 15017KT 9999 SCT018 BKN200 11/07 Q1023 NOSIG
Conditions at: EINN (SHANNON AIRPORT , IE) observed 1230 UTC 14 February 2019
Temperature: 11.0°C (52°F)
Dewpoint: 7.0°C (45°F) [RH = 76%]
Pressure (altimeter): 30.21 inches Hg (1023.0 mb)
Winds: from the SSE (150 degrees) at 20 MPH (17 knots; 8.7 m/s)
Visibility: 6 or more miles (10+ km)
Ceiling: 20000 feet AGL
Clouds: scattered clouds at 1800 feet AGL
broken clouds at 20000 feet AGL
Weather: no significant weather observed at this time

METAR text: EINN 141200Z 15020KT 9999 SCT018 BKN200 11/06 Q1023 NOSIG
Conditions at: EINN (SHANNON AIRPORT , IE) observed 1200 UTC 14 February 2019
Temperature: 11.0°C (52°F)
Dewpoint: 6.0°C (43°F) [RH = 71%]
Pressure (altimeter): 30.21 inches Hg (1023.0 mb)
Winds: from the SSE (150 degrees) at 23 MPH (20 knots; 10.3 m/s)
Visibility: 6 or more miles (10+ km)
Ceiling: 20000 feet AGL
Clouds: scattered clouds at 1800 feet AGL
broken clouds at 20000 feet AGL
Weather: no significant weather observed at this time

Forecast for: EINN (SHANNON AIRPORT , IE)
Text: TAF EINN 152300Z 1600/1624 20015KT 9999 FEW015 BKN030
Forecast period: 0000 to 0400 UTC 16 February 2019
Forecast type: FROM: standard forecast or significant change
Winds: from the SSW (200 degrees) at 17 MPH (15 knots; 7.7 m/s)
Visibility: 6 or more miles 10+ km)
Ceiling: 3000 feet AGL
Clouds: few clouds at 1500 feet AGL
broken clouds at 3000 feet AGL
Weather: no significant weather forecast for this period
Text: BECMG 1604/1607 16012KT
Forecast period: 0400 to 1000 UTC 16 February 2019
Forecast type: BECOMING: Conditions expected to become as follows by 0700 UTC 16 February 2019
Winds: from the SSE (160 degrees) at 14 MPH (12 knots; 6.2 m/s)
Visibility: 6 or more miles 10+ km)
Ceiling: 3000 feet AGL
Clouds: few clouds at 1500 feet AGL
broken clouds at 3000 feet AGL
Weather: no significant weather forecast for this period
Text: BECMG 1610/1612 17017G28KT
Forecast period: 1000 UTC 16 February 2019 to 0000 UTC 17 February 2019
Forecast type: BECOMING: Conditions expected to become as follows by 1200 UTC 16 February 2019
Winds: from the S (170 degrees) at 20 MPH (17 knots; 8.7 m/s)
gusting to 32 MPH (28 knots; 14.4 m/s)
Visibility: 6 or more miles 10+ km)
Ceiling: 3000 feet AGL
Clouds: few clouds at 1500 feet AGL
broken clouds at 3000 feet AGL
Weather: no significant weather forecast for this period
Text: TEMPO 1619/1624 -RA BKN014
Forecast period: 1900 UTC 16 February 2019 to 0000 UTC 17 February 2019
Forecast type: TEMPORARY: The following changes expected for less than half the time period
Visibility: missing
Ceiling: 1400 feet AGL
Clouds: broken clouds at 1400 feet AGL
Weather: -RA  (light rain)
Text: PROB30
Forecast period: 2300 UTC 16 February 2019 to 0000 UTC 17 February 2019
Forecast type: TEMPORARY: The following changes expected for less than half the time period
Visibility: 2.49 miles (4.01 km)
Ceiling: unknown
Clouds: missing
Weather: RA  (moderate rain)